Airport View

Enter AWOS ICAO identifier for current METAR.

ex. KFNL

K8W2 262250Z AUTO 19006KT 10SM SCT025 SCT033 BKN049 12/09 A2964 RMK AO1 T01230093

26 Feb 2020 22:52

Frequency: 118.175

Phone: 540-740-3801

Other Area AWOS: KLUA - KVBW - KSHD - KFRR

TAF AMD KJKL 262204Z 2622/2718 26012G25KT 5SM -RA BR SCT008 OVC015 FM270000 27010KT 6SM -SNRA BR OVC015 FM270700 30010KT P6SM OVC015